Weather reports worldwide

Advertisment
Monte Terminillo, Italy (16219): temperature & dewpoint: 30.03.2020 22:00:00 - 05.04.2020 22:00:00 (CEST)Monte Terminillo, Italy (16219): wind speed & gusts: 30.03.2020 22:00:00 - 05.04.2020 22:00:00 (CEST)Monte Terminillo, Italy (16219): wind direction: 30.03.2020 22:00:00 - 05.04.2020 22:00:00 (CEST)Monte Terminillo, Italy (16219): sunshine duration: 30.03.2020 22:00:00 - 05.04.2020 22:00:00 (CEST)
Date & Time tt [°C] td [°C] ff [km/h] ff [kn] fx [km/h] fx [kn] dd sd [min]
05.04.2020 22:00:00 1,1 -4,4 29 16 49 27 E 0
05.04.2020 21:00:00 1,9 -4,6 4 2 64 35 N 0
05.04.2020 20:00:00 2,2 -5,3 4 2 - - N 33
05.04.2020 19:00:00 - - - - - - - -
05.04.2020 18:00:00 2,6 -4,5 31 17 - - E 53
05.04.2020 17:00:00 3,0 -3,7 21 11 - - E 50
05.04.2020 16:00:00 3,1 -5,1 34 18 50 27 E 42
05.04.2020 15:00:00 2,2 -5,6 31 17 - - E 45
05.04.2020 14:00:00 1,4 -5,9 26 14 - - E 51
05.04.2020 13:00:00 1,0 -6,2 31 17 52 28 E 37
05.04.2020 12:00:00 0,3 -6,3 41 22 61 33 E 29
05.04.2020 11:00:00 -0,4 -5,9 61 33 - - E 43
05.04.2020 10:00:00 -1,5 -6,2 54 29 75 41 E 60
05.04.2020 09:00:00 -1,6 -6,0 4 2 62 34 N 42
05.04.2020 08:00:00 -1,4 -6,5 50 27 - - E 29
05.04.2020 07:00:00 -1,6 -6,8 55 30 - - E 0
05.04.2020 06:00:00 - - - - - - - -
05.04.2020 05:00:00 -1,3 -8,1 4 2 - - N 0
05.04.2020 04:00:00 -1,6 -7,5 4 2 46 25 N 0
05.04.2020 03:00:00 -1,3 -7,8 34 18 52 28 E 0
05.04.2020 02:00:00 -1,3 -7,8 39 21 - - E 0
05.04.2020 01:00:00 -1,9 -7,5 57 31 - - E 0
05.04.2020 00:00:00 -1,6 -8,7 44 24 61 33 E 0
04.04.2020 23:00:00 -1,8 -7,4 44 24 - - E 0
04.04.2020 22:00:00 -1,0 -5,9 31 17 53 29 E 0
04.04.2020 21:00:00 0,0 -6,4 4 2 48 26 N 0
04.04.2020 20:00:00 - - - - - - - -
04.04.2020 19:00:00 1,2 -6,0 4 2 50 27 N 60
04.04.2020 18:00:00 1,7 -6,4 28 15 - - E 60
04.04.2020 17:00:00 1,5 -7,2 34 18 - - E 60
04.04.2020 16:00:00 1,7 -7,8 34 18 - - E 60
04.04.2020 15:00:00 1,5 -7,5 37 20 - - E 60
04.04.2020 14:00:00 0,8 -6,6 31 17 - - E 60
04.04.2020 13:00:00 - - - - - - - -
04.04.2020 12:00:00 -0,8 -7,5 50 27 - - E 60
04.04.2020 11:00:00 -1,3 -8,6 42 23 - - E 60
04.04.2020 10:00:00 -2,0 -7,8 61 33 81 44 E 60
04.04.2020 09:00:00 -2,0 -8,1 65 35 90 49 E 60
04.04.2020 08:00:00 -2,0 -8,1 63 34 - - E 38
04.04.2020 07:00:00 -2,1 -7,3 57 31 77 41 E 0
04.04.2020 06:00:00 -1,6 -7,3 48 26 - - E 0
04.04.2020 05:00:00 - - - - - - - -
04.04.2020 04:00:00 -1,6 -5,9 46 25 - - E 0
04.04.2020 03:00:00 -1,4 -6,6 48 26 - - E 0
04.04.2020 02:00:00 -1,1 -11,6 48 26 - - E 0
04.04.2020 01:00:00 -0,5 -13,6 50 27 - - E 0
04.04.2020 00:00:00 -0,3 -14,6 50 27 66 36 E 0
03.04.2020 23:00:00 0,6 -8,3 37 20 - - E 0
03.04.2020 22:00:00 - - - - - - - -
03.04.2020 21:00:00 1,6 -4,4 4 2 - - N 0
03.04.2020 20:00:00 1,9 -4,3 4 2 - - N 30
03.04.2020 19:00:00 2,6 -4,5 8 4 - - ESE 60
03.04.2020 18:00:00 3,4 -4,5 4 2 - - N 20
03.04.2020 17:00:00 4,5 -2,8 4 2 - - N 6
03.04.2020 16:00:00 3,7 -4,1 4 2 - - N 35
03.04.2020 15:00:00 1,7 -7,1 4 2 - - N 58
03.04.2020 14:00:00 1,3 -8,3 4 2 - - N 60
03.04.2020 13:00:00 0,4 -8,9 13 7 - - ESE 60
03.04.2020 12:00:00 0,1 -8,9 15 8 - - SE 60
03.04.2020 11:00:00 -0,2 -10,6 16 9 - - ESE 60
03.04.2020 10:00:00 -1,1 -13,0 4 2 - - N 60
03.04.2020 09:00:00 -2,1 -15,0 13 7 - - E 60
03.04.2020 08:00:00 -2,7 -15,3 4 2 - - N 37
03.04.2020 07:00:00 -2,8 -8,0 11 6 - - SE 0
03.04.2020 06:00:00 -2,6 -5,8 4 2 - - N 0
03.04.2020 05:00:00 -2,4 -5,6 4 2 - - N 0
03.04.2020 04:00:00 -2,2 -5,8 5 3 - - E 0
03.04.2020 03:00:00 -2,1 -6,1 4 2 - - WNW 0
03.04.2020 02:00:00 -1,9 -6,3 4 2 - - - 0
03.04.2020 01:00:00 -1,5 -5,7 4 2 - - N 0
03.04.2020 00:00:00 -1,5 -4,9 8 4 - - WNW 0
02.04.2020 23:00:00 -1,0 -4,4 4 2 - - NW 0
02.04.2020 22:00:00 -0,6 -4,3 11 6 - - ESE 0
02.04.2020 21:00:00 0,3 -3,4 4 2 - - N 0
02.04.2020 20:00:00 0,8 -3,2 8 4 - - NNW 30
02.04.2020 19:00:00 1,5 -2,7 13 7 - - NNW 59
02.04.2020 18:00:00 1,4 -3,1 13 7 - - W 60
02.04.2020 17:00:00 1,2 -2,9 16 9 - - WNW 59
02.04.2020 16:00:00 0,7 -2,6 4 2 - - N 60
02.04.2020 15:00:00 -0,7 -3,3 4 2 - - N 60
02.04.2020 14:00:00 -1,3 -3,4 8 4 - - W 60
02.04.2020 13:00:00 -2,2 -3,9 4 2 - - N 60
02.04.2020 12:00:00 -3,4 -4,8 4 2 - - N 46
02.04.2020 11:00:00 -4,1 -6,0 4 2 - - N 55
02.04.2020 10:00:00 -5,1 -6,7 4 2 - - N 60
02.04.2020 09:00:00 -6,6 -9,0 4 2 - - N 60
02.04.2020 08:00:00 -6,4 -8,1 4 2 - - - 36
02.04.2020 07:00:00 -6,3 -8,2 4 2 - - N 0
02.04.2020 06:00:00 -6,3 -8,6 5 3 - - NW 0
02.04.2020 05:00:00 -6,3 -9,1 5 3 - - WSW 0
02.04.2020 04:00:00 -6,2 -9,0 15 8 - - WNW 0
02.04.2020 03:00:00 -6,0 -10,3 21 11 - - WNW 0
02.04.2020 02:00:00 -6,0 -9,1 18 10 - - WNW 0
02.04.2020 01:00:00 -5,9 -9,3 15 8 - - NW 0
02.04.2020 00:00:00 -5,7 -8,9 9 5 - - W 0
01.04.2020 23:00:00 -6,3 -11,6 4 2 - - N 0
01.04.2020 22:00:00 -6,4 -9,7 4 2 - - N 0
01.04.2020 21:00:00 -6,4 -10,0 8 4 - - SE 0
01.04.2020 20:00:00 -4,9 -7,5 21 11 - - E 30
01.04.2020 19:00:00 -6,0 -9,2 11 6 - - ESE 60
01.04.2020 18:00:00 -5,7 -9,1 4 2 - - N 60
01.04.2020 17:00:00 -5,3 -8,6 16 9 - - ESE 50
01.04.2020 16:00:00 -6,8 -9,2 4 2 - - N 59
01.04.2020 15:00:00 -7,1 -9,8 13 7 - - ESE 55
01.04.2020 14:00:00 -8,4 -12,3 4 2 - - N 60
01.04.2020 13:00:00 -8,8 -11,5 4 2 48 26 N 60
01.04.2020 12:00:00 -9,2 -12,2 50 27 - - E 60
01.04.2020 11:00:00 -10,2 -12,6 52 28 - - E 59
01.04.2020 10:00:00 -10,4 -12,9 59 32 85 46 E 59
01.04.2020 09:00:00 -10,5 -12,5 61 33 85 46 E 22
01.04.2020 08:00:00 - - - - - - - -
01.04.2020 07:00:00 -9,8 -10,7 4 2 81 44 N 0
01.04.2020 06:00:00 -9,8 -10,6 4 2 92 50 N 0
01.04.2020 05:00:00 -9,5 -12,2 63 34 - - ESE 0
01.04.2020 04:00:00 -9,2 -13,1 63 34 81 44 E 0
01.04.2020 03:00:00 -8,7 -12,6 81 44 - - E 0
01.04.2020 02:00:00 -9,0 -12,6 57 31 - - E 0
01.04.2020 01:00:00 -7,3 -10,6 63 34 - - E 0
01.04.2020 00:00:00 - - - - - - - -
31.03.2020 23:00:00 -3,6 -5,3 48 26 - - E 0
31.03.2020 22:00:00 -1,7 -2,8 28 15 - - E 0
31.03.2020 21:00:00 -1,1 -2,1 4 2 - - N 0
31.03.2020 20:00:00 -0,4 -1,1 9 5 - - NW 0
31.03.2020 19:00:00 0,0 -0,5 9 5 - - NNW 0
31.03.2020 18:00:00 0,3 0,0 9 5 - - NW 0
31.03.2020 17:00:00 0,4 0,0 15 8 - - NW 0
31.03.2020 16:00:00 0,5 -0,1 4 2 - - N 0
31.03.2020 15:00:00 0,5 0,0 4 2 - - N 0
31.03.2020 14:00:00 0,5 -0,1 4 2 - - N 0
31.03.2020 13:00:00 0,3 -0,3 4 2 - - N 1
31.03.2020 12:00:00 0,1 -0,5 4 2 - - N 2
31.03.2020 11:00:00 -0,1 -0,9 4 2 - - N 0
31.03.2020 10:00:00 -0,4 -1,2 4 2 - - N 4
31.03.2020 09:00:00 -0,8 -1,8 5 3 - - ESE 36
31.03.2020 08:00:00 -0,6 -1,3 4 2 - - N 31
31.03.2020 07:00:00 -0,6 -1,4 5 3 - - NE 0
31.03.2020 06:00:00 -0,5 -1,4 13 7 - - NW 0
31.03.2020 05:00:00 -0,5 -1,5 15 8 - - NW 0
31.03.2020 04:00:00 -0,4 -1,5 18 10 - - NW 0
31.03.2020 03:00:00 -0,4 -1,5 18 10 - - NW 0
31.03.2020 02:00:00 0,1 -1,1 15 8 - - NW 0
31.03.2020 01:00:00 0,2 -0,9 11 6 - - NW 0
31.03.2020 00:00:00 0,3 -0,7 5 3 - - WNW 0
30.03.2020 23:00:00 0,4 -0,5 4 2 - - N 0
30.03.2020 22:00:00 0,4 -0,7 13 7 - - NNW 0

tt = temperature
td = dewpoint
ff = wind speed
fx = gusts
dd = wind direction
sd = sunshine duration

Next stations